Time;durP1;ratioP1;P1;durP2;ratioP2;P2;SDS_P1;SDS_P2;PMS_P1;PMS_P2;Temp;Humidity;BMP_temperature;BMP_pressure;BME280_temperature;BME280_humidity;BME280_pressure;Samples;Min_cycle;Max_cycle;Signal;HPM_P1;HPM_P2
2023/01/24 00:00:34;;;;;;;18.77;13.32;;;3.80;99.90;;;;;;5069285;28;20484;-69
2023/01/24 00:03:00;;;;;;;19.55;14.30;;;3.80;99.90;;;;;;5068386;28;20086;-67
2023/01/24 00:05:25;;;;;;;20.67;13.95;;;3.80;99.90;;;;;;5068740;28;20469;-68
2023/01/24 00:07:51;;;;;;;21.15;14.20;;;3.80;99.90;;;;;;5068623;28;20040;-68
2023/01/24 00:10:17;;;;;;;20.83;14.15;;;3.70;99.90;;;;;;5068681;28;20044;-68
2023/01/24 00:12:43;;;;;;;19.40;13.93;;;3.70;99.90;;;;;;5068082;28;20404;-67
2023/01/24 00:15:09;;;;;;;19.63;13.80;;;3.70;99.90;;;;;;5068998;28;20032;-68
2023/01/24 00:17:35;;;;;;;18.48;13.57;;;3.70;99.90;;;;;;5068680;28;20045;-68
2023/01/24 00:20:00;;;;;;;18.60;13.25;;;3.70;99.90;;;;;;5068725;28;20691;-69
2023/01/24 00:22:26;;;;;;;17.27;12.68;;;3.70;99.90;;;;;;5068648;28;20036;-67
2023/01/24 00:24:52;;;;;;;19.23;14.13;;;3.70;99.90;;;;;;5051875;28;20419;-68
2023/01/24 00:27:18;;;;;;;20.05;13.45;;;3.70;99.90;;;;;;5068429;28;20043;-68
2023/01/24 00:29:43;;;;;;;20.20;13.95;;;3.80;99.90;;;;;;5068740;28;20482;-66
2023/01/24 00:32:09;;;;;;;19.92;13.93;;;3.80;99.90;;;;;;5068574;28;20041;-67
2023/01/24 00:34:35;;;;;;;19.17;13.73;;;3.80;99.90;;;;;;5067569;28;20108;-67
2023/01/24 00:37:00;;;;;;;21.95;14.48;;;3.80;99.90;;;;;;5068409;28;20047;-70
2023/01/24 00:39:26;;;;;;;18.23;13.32;;;3.80;99.90;;;;;;5067635;28;20040;-69
2023/01/24 00:41:52;;;;;;;20.05;13.45;;;3.70;99.90;;;;;;5067289;28;20089;-66
2023/01/24 00:44:17;;;;;;;19.67;14.18;;;3.70;99.90;;;;;;5067208;28;20127;-68
2023/01/24 00:46:43;;;;;;;19.10;13.70;;;3.70;99.90;;;;;;5048993;28;20049;-66
2023/01/24 00:49:09;;;;;;;17.88;13.77;;;3.70;99.90;;;;;;5066676;28;20548;-68
2023/01/24 00:51:35;;;;;;;20.20;13.73;;;3.70;99.90;;;;;;5049427;28;20584;-68
2023/01/24 00:54:00;;;;;;;19.52;13.32;;;3.70;99.90;;;;;;5068283;28;20480;-67
2023/01/24 00:56:26;;;;;;;18.52;13.60;;;3.70;99.90;;;;;;5066643;28;20510;-67
2023/01/24 00:58:52;;;;;;;19.77;14.13;;;3.70;99.90;;;;;;5068087;28;20036;-70
2023/01/24 01:01:18;;;;;;;18.45;13.35;;;3.70;99.90;;;;;;5067421;28;20407;-69
2023/01/24 01:03:43;;;;;;;21.08;14.20;;;3.70;99.90;;;;;;5048355;28;20501;-68
2023/01/24 01:06:14;;;;;;;21.17;13.88;;;3.70;99.90;;;;;;5067741;28;20064;-68
2023/01/24 01:08:40;;;;;;;18.52;13.98;;;3.70;99.90;;;;;;5068055;28;20047;-67
2023/01/24 01:11:06;;;;;;;20.15;13.82;;;3.80;99.90;;;;;;5068004;28;20050;-68
2023/01/24 01:13:32;;;;;;;18.90;14.68;;;3.80;99.90;;;;;;5065151;28;20079;-69
2023/01/24 01:16:01;;;;;;;19.48;13.75;;;3.80;99.90;;;;;;5067572;28;20473;-67
2023/01/24 01:18:27;;;;;;;16.63;12.60;;;3.70;99.90;;;;;;5067926;28;20032;-68
2023/01/24 01:20:52;;;;;;;17.70;13.95;;;3.80;99.90;;;;;;5067789;28;21489;-68
2023/01/24 01:23:18;;;;;;;18.45;13.85;;;3.80;99.90;;;;;;5067635;28;20118;-66
2023/01/24 01:25:44;;;;;;;19.25;14.05;;;3.80;99.90;;;;;;5067447;28;20036;-69
2023/01/24 01:28:09;;;;;;;20.92;13.52;;;3.70;99.90;;;;;;5067721;28;20136;-70
2023/01/24 01:30:35;;;;;;;18.50;13.50;;;3.70;99.90;;;;;;5066017;28;20042;-67
2023/01/24 01:33:00;;;;;;;17.15;13.32;;;3.70;99.90;;;;;;5065150;28;20139;-68
2023/01/24 01:35:26;;;;;;;21.50;14.02;;;3.70;99.90;;;;;;5067677;28;20080;-67
2023/01/24 01:37:52;;;;;;;17.05;13.18;;;3.70;99.90;;;;;;5067388;28;20055;-69
2023/01/24 01:40:18;;;;;;;21.48;14.00;;;3.70;99.90;;;;;;5050648;28;20457;-66
2023/01/24 01:42:52;;;;;;;18.40;13.13;;;3.70;99.90;;;;;;5067596;28;20402;-69
2023/01/24 01:45:36;;;;;;;20.17;13.73;;;3.70;99.90;;;;;;5068671;28;20036;-70
2023/01/24 01:48:21;;;;;;;20.63;14.05;;;3.70;99.90;;;;;;5054496;28;20082;-65
2023/01/24 01:50:59;;;;;;;19.58;13.23;;;3.70;99.90;;;;;;5054770;28;20066;-67
2023/01/24 01:53:29;;;;;;;20.33;14.13;;;3.70;99.90;;;;;;5071038;28;20033;-68
2023/01/24 01:56:01;;;;;;;20.27;14.07;;;3.70;99.90;;;;;;5070304;28;20047;-68
2023/01/24 01:58:27;;;;;;;19.17;14.03;;;3.70;99.90;;;;;;5087942;28;20494;-68
2023/01/24 02:00:53;;;;;;;19.10;13.43;;;3.70;99.90;;;;;;5054108;28;20474;-66
2023/01/24 02:03:39;;;;;;;19.20;13.10;;;3.70;99.90;;;;;;5070755;28;20445;-69
2023/01/24 02:06:10;;;;;;;19.13;13.07;;;3.70;99.90;;;;;;5070841;28;20041;-64
2023/01/24 02:08:36;;;;;;;18.30;13.13;;;3.80;99.90;;;;;;5071191;28;20109;-67
2023/01/24 02:13:47;;;;;;;18.08;12.80;;;3.70;99.90;;;;;;5071212;28;20438;-68
2023/01/24 02:16:14;;;;;;;14.43;10.95;;;3.70;99.90;;;;;;5071134;28;20044;-67
2023/01/24 02:18:42;;;;;;;15.55;10.65;;;3.70;99.90;;;;;;5070668;28;20045;-66
2023/01/24 02:21:11;;;;;;;14.35;10.77;;;3.70;99.90;;;;;;5054594;28;20076;-67
2023/01/24 02:24:04;;;;;;;15.63;11.18;;;3.70;99.90;;;;;;5053999;28;20411;-67
2023/01/24 02:26:30;;;;;;;15.55;11.38;;;3.70;99.90;;;;;;5071843;28;20040;-67
2023/01/24 02:29:14;;;;;;;14.82;11.05;;;3.80;99.90;;;;;;5070700;28;20124;-70
2023/01/24 02:32:02;;;;;;;17.55;11.38;;;3.70;99.90;;;;;;5069484;28;20049;-70
2023/01/24 02:34:29;;;;;;;15.10;11.07;;;3.70;99.90;;;;;;5069707;28;20036;-68
2023/01/24 02:37:09;;;;;;;15.15;11.48;;;3.70;99.90;;;;;;5068347;28;20082;-68
2023/01/24 02:40:04;;;;;;;16.90;12.80;;;3.80;99.90;;;;;;5068309;28;20032;-67
2023/01/24 02:42:35;;;;;;;17.13;11.65;;;3.70;99.90;;;;;;5068599;28;20068;-67
2023/01/24 02:45:16;;;;;;;16.65;10.93;;;3.70;99.90;;;;;;5070673;28;20048;-68
2023/01/24 02:47:45;;;;;;;14.02;10.32;;;3.70;99.90;;;;;;5069871;28;20048;-68
2023/01/24 02:50:12;;;;;;;13.90;10.32;;;3.60;99.90;;;;;;5070598;28;20043;-68
2023/01/24 02:55:24;;;;;;;13.43;9.90;;;3.60;99.90;;;;;;5070384;28;20071;-69
2023/01/24 02:58:05;;;;;;;14.50;9.57;;;3.60;99.90;;;;;;5068708;28;20047;-67
2023/01/24 03:00:41;;;;;;;15.00;10.10;;;3.60;99.90;;;;;;5069208;28;20051;-67
2023/01/24 03:03:09;;;;;;;14.07;10.23;;;3.60;99.90;;;;;;5070078;28;20127;-68
2023/01/24 03:08:19;;;;;;;15.82;11.52;;;3.60;99.90;;;;;;5069860;28;20083;-66
2023/01/24 03:10:46;;;;;;;15.15;10.75;;;3.60;99.90;;;;;;5053210;28;20053;-66
2023/01/24 03:35:09;;;;;;;17.50;12.25;;;3.50;99.90;;;;;;5069463;28;20083;-66
2023/01/24 03:40:18;;;;;;;16.10;11.80;;;3.50;99.90;;;;;;5069162;28;20047;-69
2023/01/24 03:42:50;;;;;;;17.40;12.35;;;3.50;99.90;;;;;;5068629;28;20474;-69
2023/01/24 03:45:17;;;;;;;15.85;12.07;;;3.50;99.90;;;;;;5068234;28;20041;-67
2023/01/24 03:47:54;;;;;;;18.35;12.18;;;3.50;99.90;;;;;;5069307;28;20122;-68
2023/01/24 03:53:07;;;;;;;18.08;12.50;;;3.50;99.90;;;;;;5067183;28;20114;-68
2023/01/24 03:55:33;;;;;;;18.58;12.77;;;3.50;99.90;;;;;;5068492;28;20093;-68
2023/01/24 03:57:58;;;;;;;21.02;13.32;;;3.50;99.90;;;;;;5069145;28;20482;-68
2023/01/24 04:00:24;;;;;;;18.80;13.30;;;3.50;99.90;;;;;;5069126;28;20506;-68
2023/01/24 04:02:50;;;;;;;16.73;12.38;;;3.50;99.90;;;;;;5068842;28;20083;-65
2023/01/24 04:05:15;;;;;;;17.42;11.80;;;3.40;99.90;;;;;;5069326;28;20115;-66
2023/01/24 04:07:41;;;;;;;15.68;11.85;;;3.40;99.90;;;;;;5068410;28;20047;-68
2023/01/24 04:10:08;;;;;;;17.27;12.02;;;3.40;99.90;;;;;;5068982;28;20036;-66
2023/01/24 04:12:34;;;;;;;17.10;11.20;;;3.40;99.90;;;;;;5068568;28;20400;-68
2023/01/24 04:15:00;;;;;;;17.58;11.25;;;3.30;99.90;;;;;;5068996;28;20048;-68
2023/01/24 04:17:25;;;;;;;17.25;12.00;;;3.30;99.90;;;;;;5068339;28;20093;-67
2023/01/24 04:19:51;;;;;;;17.67;11.63;;;3.30;99.90;;;;;;5068744;28;20041;-68
2023/01/24 04:22:17;;;;;;;18.73;12.27;;;3.30;99.90;;;;;;5069045;28;20141;-67
2023/01/24 04:24:46;;;;;;;17.55;11.95;;;3.30;99.90;;;;;;5069262;28;20526;-67
2023/01/24 04:27:12;;;;;;;15.93;11.60;;;3.30;99.90;;;;;;5068473;28;20041;-68
2023/01/24 04:29:37;;;;;;;16.55;11.90;;;3.30;99.90;;;;;;5068398;28;20048;-68
2023/01/24 04:32:03;;;;;;;18.38;12.10;;;3.30;99.90;;;;;;5068329;28;20663;-67
2023/01/24 04:34:29;;;;;;;17.55;12.23;;;3.30;99.90;;;;;;5068170;28;20041;-68
2023/01/24 04:36:54;;;;;;;17.08;11.98;;;3.30;99.90;;;;;;5068148;28;20032;-69
2023/01/24 04:39:20;;;;;;;18.83;12.00;;;3.30;99.90;;;;;;5068762;28;20032;-68
2023/01/24 04:41:46;;;;;;;16.58;11.88;;;3.30;99.90;;;;;;5068403;28;20032;-67
2023/01/24 04:44:11;;;;;;;16.30;11.73;;;3.30;99.90;;;;;;5068401;28;20098;-66
2023/01/24 04:46:37;;;;;;;13.95;10.20;;;3.30;99.90;;;;;;5051460;28;20056;-70
2023/01/24 04:49:02;;;;;;;14.68;9.73;;;3.30;99.90;;;;;;5067941;28;20048;-68
2023/01/24 04:51:28;;;;;;;15.55;10.43;;;3.30;99.90;;;;;;5068100;28;20041;-67
2023/01/24 04:53:54;;;;;;;14.10;10.20;;;3.30;99.90;;;;;;5066739;28;20083;-68
2023/01/24 04:56:19;;;;;;;14.38;9.63;;;3.30;99.90;;;;;;5065484;28;20043;-67
2023/01/24 04:58:45;;;;;;;14.93;10.23;;;3.30;99.90;;;;;;5068536;28;20131;-68
2023/01/24 05:01:11;;;;;;;15.38;9.85;;;3.30;99.90;;;;;;5066688;28;20147;-69
2023/01/24 05:03:36;;;;;;;13.20;9.52;;;3.30;99.90;;;;;;5067956;28;20036;-67
2023/01/24 05:06:02;;;;;;;16.00;10.30;;;3.30;99.90;;;;;;5067662;28;20044;-66
2023/01/24 05:08:28;;;;;;;14.68;9.98;;;3.30;99.90;;;;;;5051414;28;20094;-69
2023/01/24 05:10:53;;;;;;;12.20;8.65;;;3.30;99.90;;;;;;5069580;28;20107;-68
2023/01/24 05:13:19;;;;;;;13.60;9.27;;;3.20;99.90;;;;;;5064287;28;20041;-67
2023/01/24 05:15:49;;;;;;;14.55;9.40;;;3.20;99.90;;;;;;5068774;28;20087;-69
2023/01/24 05:18:15;;;;;;;15.18;9.18;;;3.20;99.90;;;;;;5067221;28;20561;-68
2023/01/24 05:20:41;;;;;;;14.75;10.00;;;3.20;99.90;;;;;;5072670;28;20127;-67
2023/01/24 05:23:07;;;;;;;15.18;9.40;;;3.20;99.90;;;;;;5074066;28;20123;-67
2023/01/24 05:25:32;;;;;;;11.80;8.70;;;3.20;99.90;;;;;;5057175;28;20068;-68
2023/01/24 05:27:58;;;;;;;12.88;9.05;;;3.20;99.90;;;;;;5073907;28;20040;-68
2023/01/24 05:30:23;;;;;;;14.90;9.77;;;3.30;99.90;;;;;;5057596;28;20388;-67
2023/01/24 05:32:49;;;;;;;15.75;9.88;;;3.30;99.90;;;;;;5057519;28;20086;-67
2023/01/24 05:35:15;;;;;;;14.35;9.55;;;3.30;99.90;;;;;;5057478;28;20041;-67
2023/01/24 05:37:41;;;;;;;15.25;9.75;;;3.30;99.90;;;;;;5074300;28;20514;-65
2023/01/24 05:40:07;;;;;;;11.27;8.82;;;3.30;99.90;;;;;;5073366;28;20032;-67
2023/01/24 05:42:33;;;;;;;12.90;9.60;;;3.40;99.90;;;;;;5073825;28;20043;-68
2023/01/24 05:44:59;;;;;;;12.18;8.82;;;3.30;99.90;;;;;;5073728;28;20418;-66
2023/01/24 05:47:24;;;;;;;12.85;9.43;;;3.30;99.90;;;;;;5074290;28;20120;-68
2023/01/24 05:49:50;;;;;;;11.50;8.52;;;3.30;99.90;;;;;;5073979;28;20466;-67
2023/01/24 05:52:20;;;;;;;11.85;8.13;;;3.30;99.90;;;;;;5074136;28;20040;-69
2023/01/24 05:54:47;;;;;;;13.75;8.52;;;3.30;99.90;;;;;;5074551;28;20068;-68
2023/01/24 05:57:14;;;;;;;11.95;8.40;;;3.30;99.90;;;;;;5074131;28;20232;-68
2023/01/24 05:59:39;;;;;;;13.32;8.35;;;3.20;99.90;;;;;;5073884;28;20040;-68
2023/01/24 06:02:05;;;;;;;11.23;8.38;;;3.20;99.90;;;;;;5057870;28;20052;-69
2023/01/24 06:04:30;;;;;;;13.27;8.50;;;3.20;99.90;;;;;;5074192;28;20048;-69
2023/01/24 06:06:56;;;;;;;12.38;9.07;;;3.20;99.90;;;;;;5074147;28;20045;-68
2023/01/24 06:09:22;;;;;;;12.85;8.32;;;3.20;99.90;;;;;;5074105;28;20036;-67
2023/01/24 06:11:47;;;;;;;11.25;8.57;;;3.20;99.90;;;;;;5073608;28;20399;-69
2023/01/24 06:14:13;;;;;;;12.48;8.48;;;3.20;99.90;;;;;;5073784;28;20040;-68
2023/01/24 06:16:39;;;;;;;13.20;8.57;;;3.20;99.90;;;;;;5057404;28;20551;-70
2023/01/24 06:19:05;;;;;;;11.05;7.90;;;3.20;99.90;;;;;;5073835;28;20376;-68
2023/01/24 06:21:47;;;;;;;11.50;8.27;;;3.20;99.90;;;;;;5073751;28;20113;-67
2023/01/24 06:24:26;;;;;;;10.85;7.88;;;3.10;99.90;;;;;;5073730;28;20149;-67
2023/01/24 06:26:52;;;;;;;12.68;7.93;;;3.10;99.90;;;;;;5073775;28;20108;-68
2023/01/24 06:29:20;;;;;;;11.02;8.05;;;3.10;99.90;;;;;;5073887;28;20043;-71
2023/01/24 06:31:58;;;;;;;11.85;8.20;;;3.10;99.90;;;;;;5071947;28;20079;-66
2023/01/24 06:34:47;;;;;;;12.10;8.30;;;3.10;99.90;;;;;;5070215;28;20112;-68
2023/01/24 06:37:32;;;;;;;11.70;7.72;;;3.10;99.90;;;;;;5070866;28;20075;-68
2023/01/24 06:39:58;;;;;;;10.80;7.88;;;3.10;99.90;;;;;;5054362;28;20033;-67
2023/01/24 06:42:24;;;;;;;11.48;8.43;;;3.10;99.90;;;;;;5070513;28;20037;-68
2023/01/24 06:44:50;;;;;;;13.40;8.30;;;3.10;99.90;;;;;;5070334;28;20063;-69
2023/01/24 06:47:16;;;;;;;12.07;8.32;;;3.10;99.90;;;;;;5070596;28;20056;-68
2023/01/24 06:49:41;;;;;;;12.93;8.40;;;3.10;99.90;;;;;;5069306;28;20060;-69
2023/01/24 06:52:08;;;;;;;11.45;8.45;;;3.10;99.90;;;;;;5070353;28;20036;-67
2023/01/24 06:54:35;;;;;;;13.07;8.70;;;3.10;99.90;;;;;;5070033;28;20067;-68
2023/01/24 06:57:02;;;;;;;11.60;7.88;;;3.10;99.90;;;;;;5070379;28;20040;-69
2023/01/24 06:59:27;;;;;;;11.40;7.85;;;3.10;99.90;;;;;;5070658;28;20105;-67
2023/01/24 07:01:53;;;;;;;12.00;8.35;;;3.10;99.90;;;;;;5070554;28;20032;-67
2023/01/24 07:04:19;;;;;;;12.18;8.02;;;3.10;99.90;;;;;;5066587;28;20387;-66
2023/01/24 07:06:44;;;;;;;11.93;8.10;;;3.10;99.90;;;;;;5066902;28;20060;-65
2023/01/24 07:09:10;;;;;;;13.48;9.50;;;3.10;99.90;;;;;;5070276;28;20049;-66
2023/01/24 07:11:36;;;;;;;12.82;8.52;;;3.10;99.90;;;;;;5066946;28;20044;-67
2023/01/24 07:14:02;;;;;;;12.27;8.75;;;3.10;99.90;;;;;;5049846;28;20426;-68
2023/01/24 07:16:28;;;;;;;12.38;8.40;;;3.00;99.90;;;;;;5068935;28;20033;-66
2023/01/24 07:18:54;;;;;;;11.73;8.48;;;3.10;99.90;;;;;;5053667;28;20059;-69
2023/01/24 07:21:20;;;;;;;14.23;9.30;;;3.10;99.90;;;;;;5070220;28;20043;-67
2023/01/24 07:23:47;;;;;;;14.82;9.23;;;3.10;99.90;;;;;;5068046;28;20048;-68
2023/01/24 07:26:14;;;;;;;13.25;8.27;;;3.10;99.90;;;;;;5070082;28;20052;-66
2023/01/24 07:28:40;;;;;;;10.60;8.32;;;3.10;99.90;;;;;;5067582;28;20499;-67
2023/01/24 07:31:06;;;;;;;11.75;9.02;;;3.10;99.90;;;;;;5070032;28;20028;-66
2023/01/24 07:33:32;;;;;;;13.45;9.13;;;3.20;99.90;;;;;;5070032;28;20055;-66
2023/01/24 07:35:57;;;;;;;14.18;9.00;;;3.20;99.90;;;;;;5069978;28;20559;-67
2023/01/24 07:38:23;;;;;;;14.13;9.30;;;3.10;99.90;;;;;;5069186;28;20047;-67
2023/01/24 07:40:49;;;;;;;15.38;9.90;;;3.10;99.90;;;;;;5069234;28;20119;-68
2023/01/24 07:43:14;;;;;;;13.23;8.80;;;3.10;99.90;;;;;;5068139;28;20059;-67
2023/01/24 07:45:44;;;;;;;12.70;9.18;;;3.10;99.90;;;;;;5068411;28;20051;-66
2023/01/24 07:48:09;;;;;;;14.43;9.55;;;3.10;99.90;;;;;;5069769;28;20044;-67
2023/01/24 07:50:35;;;;;;;12.98;9.30;;;3.10;99.90;;;;;;5066793;28;20066;-68
2023/01/24 07:53:01;;;;;;;13.57;9.38;;;3.00;99.90;;;;;;5068075;28;20128;-66
2023/01/24 07:55:27;;;;;;;11.63;8.35;;;3.00;99.90;;;;;;5068798;28;20513;-66
2023/01/24 07:57:58;;;;;;;12.50;8.55;;;3.00;99.90;;;;;;5051677;28;20110;-67
2023/01/24 08:00:24;;;;;;;12.95;8.88;;;2.90;99.90;;;;;;5051066;28;20048;-69
2023/01/24 08:02:52;;;;;;;11.68;8.57;;;2.90;99.90;;;;;;5067021;28;20039;-67
2023/01/24 08:05:18;;;;;;;12.20;8.65;;;2.90;99.90;;;;;;5051724;28;20059;-69
2023/01/24 08:07:43;;;;;;;13.93;9.75;;;2.90;99.90;;;;;;5066282;28;20048;-66
2023/01/24 08:10:09;;;;;;;11.20;8.48;;;2.90;99.90;;;;;;5068711;28;20487;-68
2023/01/24 08:12:36;;;;;;;14.05;8.98;;;2.90;99.90;;;;;;5067408;28;20094;-65
2023/01/24 08:15:01;;;;;;;12.23;8.43;;;2.90;99.90;;;;;;5068141;28;20483;-67
2023/01/24 08:17:27;;;;;;;12.70;8.90;;;2.90;99.90;;;;;;5051085;28;20105;-67
2023/01/24 08:19:53;;;;;;;12.93;8.80;;;2.90;99.90;;;;;;5069052;28;20032;-64
2023/01/24 08:22:18;;;;;;;12.00;8.70;;;2.90;99.90;;;;;;5067593;28;20044;-69
2023/01/24 08:24:44;;;;;;;11.43;8.75;;;2.90;99.90;;;;;;5068191;28;20526;-66
2023/01/24 08:27:10;;;;;;;13.98;9.43;;;2.90;99.90;;;;;;5067575;28;20052;-66
2023/01/24 08:29:36;;;;;;;14.27;10.70;;;2.90;99.90;;;;;;5066447;28;20178;-69
2023/01/24 08:32:02;;;;;;;12.75;9.15;;;2.90;99.90;;;;;;5052093;28;20127;-67
2023/01/24 08:34:27;;;;;;;13.82;9.18;;;2.90;99.90;;;;;;5068288;28;20033;-65
2023/01/24 08:36:53;;;;;;;12.38;9.02;;;2.90;99.90;;;;;;5068109;28;20394;-67
2023/01/24 08:39:19;;;;;;;11.95;9.20;;;3.00;99.90;;;;;;5049189;28;20048;-68
2023/01/24 08:41:46;;;;;;;12.98;8.95;;;3.00;99.90;;;;;;5068375;28;20082;-66
2023/01/24 08:44:12;;;;;;;12.77;9.63;;;3.00;99.90;;;;;;5050439;28;20044;-69
2023/01/24 08:46:38;;;;;;;12.45;9.13;;;3.10;99.90;;;;;;5068221;28;20048;-66
2023/01/24 08:49:04;;;;;;;12.85;9.25;;;3.10;99.90;;;;;;5067823;28;20037;-67
2023/01/24 08:51:30;;;;;;;12.30;9.13;;;3.10;99.90;;;;;;5068338;28;20044;-67
2023/01/24 08:53:55;;;;;;;12.02;8.65;;;3.00;99.90;;;;;;5066551;28;20044;-68
2023/01/24 08:56:21;;;;;;;13.43;9.18;;;3.10;99.90;;;;;;5064225;28;20082;-68
2023/01/24 08:58:47;;;;;;;11.13;8.60;;;3.00;99.90;;;;;;5066854;28;20450;-66
2023/01/24 09:01:12;;;;;;;12.43;9.20;;;3.10;99.90;;;;;;5065132;28;20127;-66
2023/01/24 09:03:38;;;;;;;11.95;9.30;;;3.00;99.90;;;;;;5051135;28;20048;-67
2023/01/24 09:06:04;;;;;;;13.93;9.80;;;3.00;99.90;;;;;;5067688;28;20570;-68
2023/01/24 09:08:31;;;;;;;13.13;9.07;;;3.00;99.90;;;;;;5067539;28;20442;-67
2023/01/24 09:11:01;;;;;;;12.23;9.52;;;3.00;99.90;;;;;;5062321;28;20498;-66
2023/01/24 09:13:27;;;;;;;12.45;9.27;;;3.00;99.90;;;;;;5060715;28;20047;-65
2023/01/24 09:15:52;;;;;;;12.43;9.38;;;3.00;99.90;;;;;;5063638;28;20115;-68
2023/01/24 09:18:18;;;;;;;12.65;9.30;;;3.00;99.90;;;;;;5066744;28;20479;-69
2023/01/24 09:20:44;;;;;;;12.60;8.98;;;3.00;99.90;;;;;;5064460;28;20043;-67
2023/01/24 09:23:11;;;;;;;13.90;9.88;;;3.00;99.90;;;;;;5066634;28;20049;-65
2023/01/24 09:25:38;;;;;;;12.30;10.00;;;3.00;99.90;;;;;;5050682;28;20056;-68
2023/01/24 09:28:03;;;;;;;13.07;9.38;;;3.00;99.90;;;;;;5066498;28;20036;-65
2023/01/24 09:30:29;;;;;;;12.85;9.77;;;3.00;99.90;;;;;;5064566;28;20087;-65
2023/01/24 09:32:54;;;;;;;12.43;9.38;;;3.00;99.90;;;;;;5047187;28;20053;-67
2023/01/24 09:35:20;;;;;;;12.65;8.88;;;3.00;99.90;;;;;;5066400;28;20069;-66
2023/01/24 09:37:46;;;;;;;12.32;9.45;;;3.00;99.90;;;;;;5065714;28;20033;-66
2023/01/24 09:40:41;;;;;;;12.60;9.35;;;3.00;99.90;;;;;;5067698;28;20127;-68
2023/01/24 09:43:25;;;;;;;13.93;10.18;;;3.00;99.90;;;;;;5060345;28;20135;-66
2023/01/24 09:46:24;;;;;;;14.77;9.85;;;3.00;99.90;;;;;;5067551;28;20047;-69
2023/01/24 09:48:57;;;;;;;13.40;9.32;;;3.00;99.90;;;;;;5006879;28;20061;-68
2023/01/24 09:51:26;;;;;;;13.07;9.10;;;3.00;99.90;;;;;;5007828;28;20052;-65
2023/01/24 09:53:59;;;;;;;12.95;9.35;;;2.90;99.90;;;;;;4993474;28;20042;-64
2023/01/24 09:56:34;;;;;;;12.57;9.57;;;2.90;99.90;;;;;;5008213;28;20042;-68
2023/01/24 09:59:20;;;;;;;49.05;32.70;;;2.90;99.90;;;;;;5006305;28;20041;-65
2023/01/24 10:01:47;;;;;;;15.68;12.10;;;2.90;99.90;;;;;;5009943;28;20044;-68
2023/01/24 10:04:20;;;;;;;13.23;10.18;;;2.90;99.90;;;;;;5010529;28;20041;-67
2023/01/24 10:06:55;;;;;;;;;;;2.90;99.90;;;;;;5012631;28;20051;-66
2023/01/24 10:09:29;;;;;;;12.43;9.43;;;2.90;99.90;;;;;;5011935;28;19999;-64
2023/01/24 10:12:07;;;;;;;14.40;11.00;;;2.80;99.90;;;;;;5011879;28;20103;-67
2023/01/24 10:14:55;;;;;;;12.35;9.82;;;2.90;99.90;;;;;;5012871;28;20476;-68
2023/01/24 10:17:40;;;;;;;11.77;9.52;;;2.90;99.90;;;;;;4994544;28;20084;-66
2023/01/24 10:20:14;;;;;;;14.45;10.27;;;2.90;99.90;;;;;;5011021;28;20038;-68
2023/01/24 10:22:43;;;;;;;13.15;9.48;;;2.90;99.90;;;;;;5012507;28;20051;-65
2023/01/24 10:25:17;;;;;;;14.50;10.70;;;2.90;99.90;;;;;;5047160;28;20056;-63
2023/01/24 10:27:53;;;;;;;14.63;10.13;;;2.90;99.90;;;;;;5069471;28;20507;-67
2023/01/24 10:30:51;;;;;;;13.52;9.93;;;2.90;99.90;;;;;;5068935;28;20063;-68
2023/01/24 10:33:19;;;;;;;13.38;10.40;;;3.00;99.90;;;;;;5020015;28;20064;-65
2023/01/24 10:35:59;;;;;;;14.23;9.90;;;2.90;99.90;;;;;;5012277;28;20511;-67
2023/01/24 10:38:25;;;;;;;13.00;9.77;;;3.00;99.90;;;;;;5008648;28;20111;-67
2023/01/24 10:41:17;;;;;;;15.60;10.57;;;3.10;99.90;;;;;;5013104;28;20034;-65
2023/01/24 10:43:49;;;;;;;12.93;10.13;;;3.10;99.90;;;;;;5017493;28;20060;-66
2023/01/24 10:46:32;;;;;;;14.70;10.52;;;3.20;99.90;;;;;;4993065;28;20163;-67
2023/01/24 10:49:00;;;;;;;13.75;10.15;;;3.20;99.90;;;;;;5025857;28;20049;-65
2023/01/24 10:51:26;;;;;;;16.55;11.07;;;3.30;99.90;;;;;;5012255;28;20572;-64
2023/01/24 10:54:00;;;;;;;19.20;12.77;;;3.30;99.90;;;;;;5012217;28;20053;-67
2023/01/24 10:56:25;;;;;;;13.23;9.88;;;3.30;99.90;;;;;;5009959;28;20057;-65
2023/01/24 10:58:56;;;;;;;11.95;9.68;;;3.30;99.90;;;;;;5011671;28;20038;-68
2023/01/24 11:01:31;;;;;;;12.05;9.93;;;3.20;99.90;;;;;;5014138;28;20132;-68
2023/01/24 11:03:57;;;;;;;13.07;10.13;;;3.20;99.90;;;;;;5029610;28;20068;-65
2023/01/24 11:06:24;;;;;;;16.38;11.02;;;3.20;99.90;;;;;;5010909;28;20061;-68
2023/01/24 11:08:55;;;;;;;14.07;11.18;;;3.20;99.90;;;;;;5009620;28;20034;-68
2023/01/24 11:11:29;;;;;;;14.75;11.45;;;3.20;99.90;;;;;;5068925;28;20055;-66
2023/01/24 11:14:00;;;;;;;13.88;10.95;;;3.30;99.90;;;;;;5068593;28;20045;-69
2023/01/24 11:16:39;;;;;;;18.05;11.00;;;3.30;99.90;;;;;;5069613;28;20081;-68
2023/01/24 11:19:05;;;;;;;12.57;9.98;;;3.30;99.90;;;;;;5051643;28;20048;-67
2023/01/24 11:21:32;;;;;;;12.93;10.30;;;3.30;99.90;;;;;;5067418;28;20456;-67
2023/01/24 11:24:07;;;;;;;14.32;10.43;;;3.30;99.90;;;;;;5069574;28;20407;-68
2023/01/24 11:26:37;;;;;;;14.18;10.80;;;3.30;99.90;;;;;;5070190;28;20647;-68
2023/01/24 11:29:15;;;;;;;15.40;12.07;;;3.30;99.90;;;;;;5069764;28;20067;-66
2023/01/24 11:32:05;;;;;;;13.48;10.63;;;3.30;99.90;;;;;;5062778;28;20491;-69
2023/01/24 11:34:50;;;;;;;21.77;15.20;;;3.20;99.90;;;;;;5066156;28;20040;-67
2023/01/24 11:37:38;;;;;;;19.15;14.13;;;3.20;99.90;;;;;;5067606;28;20082;-66
2023/01/24 11:40:07;;;;;;;18.42;15.02;;;3.20;99.90;;;;;;5069278;28;20048;-66
2023/01/24 11:42:59;;;;;;;14.40;11.82;;;3.20;99.90;;;;;;5070008;28;20142;-66
2023/01/24 11:45:38;;;;;;;12.88;9.98;;;3.10;99.90;;;;;;5068382;28;20109;-67
2023/01/24 11:48:40;;;;;;;13.10;9.52;;;3.10;99.90;;;;;;5068240;28;20115;-67
2023/01/24 11:51:26;;;;;;;12.40;9.85;;;3.00;99.90;;;;;;5031403;28;20091;-67
2023/01/24 11:53:54;;;;;;;13.00;9.80;;;3.00;99.90;;;;;;5027278;28;20088;-67
2023/01/24 11:56:32;;;;;;;12.75;10.05;;;3.00;99.90;;;;;;5014984;28;20051;-70
2023/01/24 11:59:10;;;;;;;11.88;9.57;;;3.00;99.90;;;;;;5029297;28;20456;-68
2023/01/24 12:01:44;;;;;;;12.93;9.85;;;3.00;99.90;;;;;;5031399;28;20536;-66
2023/01/24 12:04:59;;;;;;;12.48;10.00;;;3.00;99.90;;;;;;5028924;28;20369;-65
2023/01/24 12:07:27;;;;;;;14.85;10.98;;;3.00;99.90;;;;;;5025295;28;20049;-66
2023/01/24 12:09:56;;;;;;;14.43;11.15;;;3.00;99.90;;;;;;5027774;28;20435;-68
2023/01/24 12:12:32;;;;;;;12.65;9.80;;;3.00;99.90;;;;;;5029483;28;20099;-66
2023/01/24 12:15:19;;;;;;;15.25;10.70;;;3.00;99.90;;;;;;5028172;28;20274;-65
2023/01/24 12:18:07;;;;;;;12.40;9.10;;;3.00;99.90;;;;;;5028260;28;20115;-70
2023/01/24 12:21:01;;;;;;;12.95;9.73;;;2.90;99.90;;;;;;5028397;28;20076;-68
2023/01/24 12:23:46;;;;;;;12.50;9.23;;;2.90;99.90;;;;;;5028715;28;20045;-67
2023/01/24 12:26:21;;;;;;;11.40;9.43;;;2.90;99.90;;;;;;5030729;28;20107;-68
2023/01/24 12:29:16;;;;;;;12.18;9.18;;;2.90;99.90;;;;;;5060250;28;20056;-67
2023/01/24 12:31:48;;;;;;;11.23;9.10;;;3.00;99.90;;;;;;5056815;28;20049;-72
2023/01/24 12:34:31;;;;;;;14.27;9.93;;;3.00;99.90;;;;;;5065992;28;20080;-66
2023/01/24 12:37:09;;;;;;;13.25;9.68;;;3.00;99.90;;;;;;5068531;28;20043;-67
2023/01/24 12:39:59;;;;;;;12.45;9.77;;;3.10;99.90;;;;;;5065182;28;20044;-67
2023/01/24 12:42:57;;;;;;;11.93;10.02;;;3.10;99.90;;;;;;5029035;28;20048;-69
2023/01/24 12:45:33;;;;;;;12.95;9.70;;;3.10;99.90;;;;;;5026872;28;20435;-66
2023/01/24 12:48:37;;;;;;;13.27;10.15;;;3.10;99.90;;;;;;5028869;28;20079;-69
2023/01/24 12:51:21;;;;;;;14.60;10.07;;;3.20;99.90;;;;;;5028704;28;20064;-67
2023/01/24 12:54:14;;;;;;;14.50;10.10;;;3.20;99.90;;;;;;5029903;28;20127;-68
2023/01/24 12:57:04;;;;;;;12.57;10.13;;;3.20;99.90;;;;;;5040279;28;20066;-69
2023/01/24 12:59:33;;;;;;;12.25;9.90;;;3.10;99.90;;;;;;5030054;28;20049;-66
2023/01/24 13:02:10;;;;;;;11.60;8.73;;;3.10;99.90;;;;;;5029776;28;20152;-69
2023/01/24 13:04:59;;;;;;;12.63;9.07;;;3.10;99.90;;;;;;5027695;28;20037;-67
2023/01/24 13:07:25;;;;;;;13.30;9.57;;;3.20;99.90;;;;;;4987479;28;20046;-68
2023/01/24 13:10:05;;;;;;;11.27;9.02;;;3.10;99.90;;;;;;4987093;28;20394;-65
2023/01/24 13:12:31;;;;;;;11.15;9.30;;;3.20;99.90;;;;;;4967000;28;20043;-70
2023/01/24 13:15:04;;;;;;;11.70;9.93;;;3.20;99.90;;;;;;4968962;28;20039;-69
2023/01/24 13:17:50;;;;;;;11.73;9.18;;;3.20;99.90;;;;;;4970258;28;20120;-67
2023/01/24 13:20:25;;;;;;;12.93;9.55;;;3.20;99.90;;;;;;4987638;28;20056;-68
2023/01/24 13:23:13;;;;;;;12.13;9.77;;;3.20;99.90;;;;;;4987952;28;20390;-65
2023/01/24 13:26:16;;;;;;;12.80;10.13;;;3.20;99.90;;;;;;4987961;28;20066;-67
2023/01/24 13:28:56;;;;;;;;;;;3.20;99.90;;;;;;4990327;28;20060;-67
2023/01/24 13:31:29;;;;;;;14.55;9.50;;;3.10;99.90;;;;;;4989875;28;19917;-68
2023/01/24 13:34:04;;;;;;;12.38;9.57;;;3.10;99.90;;;;;;4989011;28;20125;-68
2023/01/24 13:36:35;;;;;;;12.25;8.98;;;3.20;99.90;;;;;;4988386;28;20113;-65